Home > Products > Valid Products > TAF

000
FTUS46 KLOX 061440 AAA
TAFLAX
TAF AMD
KLAX 061440Z 0615/0718 06005KT P6SM SCT250
     FM062200 27010KT P6SM SKC
     FM070300 VRB03KT P6SM SKC=



000
FTUS46 KLOX 061421 AAA
TAFPRB
TAF AMD
KPRB 061421Z 0614/0712 VRB03KT P6SM SKC
     FM062100 09012KT P6SM SKC
     FM070400 VRB03KT P6SM SKC
     FM071000 VRB03KT 6SM BR SKC=



000
FTUS46 KLOX 061421 AAA
TAFPRB
TAF AMD
KPRB 061421Z 0614/0712 VRB03KT P6SM SKC
     FM062100 09012KT P6SM SKC
     FM070400 VRB03KT P6SM SKC
     FM071000 VRB03KT 6SM BR SKC=



000
FTUS46 KLOX 061126
TAFBUR
TAF
KBUR 061126Z 0612/0712 VRB03KT P6SM SCT250 WS010/05035KT
     FM062200 VRB05KT P6SM SKC=



000
FTUS46 KLOX 061126
TAFSBP
TAF
KSBP 061126Z 0612/0712 VRB03KT P6SM SCT250
     FM062200 32008KT P6SM SKC
     FM070300 VRB03KT P6SM SKC=



000
FTUS46 KLOX 061126
TAFVNY
TAF
KVNY 061126Z 0612/0712 36015KT P6SM SCT250
     FM062000 36018G28KT P6SM SKC
     FM070100 35012KT P6SM SKC=



000
FTUS46 KLOX 061126
TAFLAX
TAF
KLAX 061126Z 0612/0718 06005KT P6SM SCT250
     FM062200 27010KT P6SM SKC
     FM070300 VRB03KT P6SM SKC=



000
FTUS46 KLOX 061126
TAFWJF
TAF
KWJF 061126Z 0612/0712 VRB03KT P6SM SCT250
     FM061800 06012KT P6SM SKC
     FM070300 27007KT P6SM SKC=



000
FTUS46 KLOX 061126
TAFPRB
TAF
KPRB 061126Z 0612/0712 VRB03KT 6SM BR VCFG SCT250
     FM061700 VRB03KT P6SM SKC
     FM062100 09012KT P6SM SKC
     FM070400 VRB03KT P6SM SKC
     FM071000 VRB03KT 6SM BR SKC=



000
FTUS46 KLOX 061126
TAFSBA
TAF
KSBA 061126Z 0612/0712 VRB03KT P6SM SCT250
     FM062100 25008KT P6SM SKC
     FM070300 VRB03KT P6SM SKC=



000
FTUS46 KLOX 061126
TAFBUR
TAF
KBUR 061126Z 0612/0712 VRB03KT P6SM SCT250 WS010/05035KT
     FM062200 VRB05KT P6SM SKC=



000
FTUS46 KLOX 061126
TAFPMD
TAF
KPMD 061126Z 0612/0712 VRB03KT P6SM SCT250
     FM061900 06012KT P6SM SKC
     FM070300 VRB03KT P6SM SKC=



000
FTUS46 KLOX 061126
TAFSBP
TAF
KSBP 061126Z 0612/0712 VRB03KT P6SM SCT250
     FM062200 32008KT P6SM SKC
     FM070300 VRB03KT P6SM SKC=



000
FTUS46 KLOX 061126
TAFSMX
TAF
KSMX 061126Z 0612/0712 VRB03KT P6SM SCT250
     FM062200 31008KT P6SM SKC
     FM070300 VRB03KT P6SM SKC=



000
FTUS46 KLOX 061126
TAFLGB
TAF
KLGB 061126Z 0612/0712 VRB03KT P6SM SCT250
     FM061500 35007KT P6SM SCT250
     FM062200 04007KT P6SM SKC
     FM070300 VRB03KT P6SM SKC=



000
FTUS46 KLOX 061126
TAFSBA
TAF
KSBA 061126Z 0612/0712 VRB03KT P6SM SCT250
     FM062100 25008KT P6SM SKC
     FM070300 VRB03KT P6SM SKC=



000
FTUS46 KLOX 061126
TAFPMD
TAF
KPMD 061126Z 0612/0712 VRB03KT P6SM SCT250
     FM061900 06012KT P6SM SKC
     FM070300 VRB03KT P6SM SKC=



000
FTUS46 KLOX 061126
TAFVNY
TAF
KVNY 061126Z 0612/0712 36015KT P6SM SCT250
     FM062000 36018G28KT P6SM SKC
     FM070100 35012KT P6SM SKC=



000
FTUS46 KLOX 061126
TAFPRB
TAF
KPRB 061126Z 0612/0712 VRB03KT 6SM BR VCFG SCT250
     FM061700 VRB03KT P6SM SKC
     FM062100 09012KT P6SM SKC
     FM070400 VRB03KT P6SM SKC
     FM071000 VRB03KT 6SM BR SKC=



000
FTUS46 KLOX 061126
TAFLGB
TAF
KLGB 061126Z 0612/0712 VRB03KT P6SM SCT250
     FM061500 35007KT P6SM SCT250
     FM062200 04007KT P6SM SKC
     FM070300 VRB03KT P6SM SKC=



000
FTUS46 KLOX 061126
TAFSMX
TAF
KSMX 061126Z 0612/0712 VRB03KT P6SM SCT250
     FM062200 31008KT P6SM SKC
     FM070300 VRB03KT P6SM SKC=



000
FTUS46 KLOX 061126
TAFLAX
TAF
KLAX 061126Z 0612/0718 06005KT P6SM SCT250
     FM062200 27010KT P6SM SKC
     FM070300 VRB03KT P6SM SKC=



000
FTUS46 KLOX 061126
TAFWJF
TAF
KWJF 061126Z 0612/0712 VRB03KT P6SM SCT250
     FM061800 06012KT P6SM SKC
     FM070300 27007KT P6SM SKC=



000
FTUS46 KLOX 060850 AAA
TAFLAX
TAF AMD
KLAX 060850Z 0609/0712 06004KT P6SM SCT250
     FM062100 27010KT P6SM SKC
     FM070300 VRB03KT P6SM SKC=



000
FTUS46 KLOX 060850 AAA
TAFLAX
TAF AMD
KLAX 060850Z 0609/0712 06004KT P6SM SCT250
     FM062100 27010KT P6SM SKC
     FM070300 VRB03KT P6SM SKC=



000
FTUS46 KLOX 060526
TAFVNY
TAF
KVNY 060526Z 0606/0706 36012KT P6SM SCT250
     FM062000 36015G25KT P6SM SKC
     FM070500 36012KT P6SM SKC=



000
FTUS46 KLOX 060526
TAFBUR
TAF
KBUR 060526Z 0606/0706 VRB03KT P6SM SCT250
     FM062200 17006KT P6SM SKC
     FM070300 VRB03KT P6SM SKC=



000
FTUS46 KLOX 060526
TAFLGB
TAF
KLGB 060526Z 0606/0706 VRB03KT P6SM SCT250
     FM061500 35007KT P6SM SCT250
     FM062200 04007KT P6SM SKC
     FM070300 VRB03KT P6SM SKC=



000
FTUS46 KLOX 060526
TAFLAX
TAF
KLAX 060526Z 0606/0712 VRB03KT P6SM SCT250
     FM060700 06004KT P6SM SCT250
     FM062100 27010KT P6SM SKC
     FM070300 VRB03KT P6SM SKC=



000
FTUS46 KLOX 060526
TAFWJF
TAF
KWJF 060526Z 0606/0706 VRB03KT P6SM SCT250
     FM061800 04012KT P6SM SKC
     FM070300 VRB03KT P6SM SKC=



000
FTUS46 KLOX 060526
TAFSBA
TAF
KSBA 060526Z 0606/0706 VRB03KT P6SM SCT250
     FM062100 24008KT P6SM SKC
     FM070400 VRB03KT P6SM SKC=



000
FTUS46 KLOX 060526
TAFPRB
TAF
KPRB 060526Z 0606/0706 VRB03KT P6SM SCT250
     FM061300 00000KT 6SM BR VCFG SCT001 SCT250
     FM061700 VRB03KT P6SM SCT250
     FM062300 09012KT P6SM SKC
     FM070400 09006KT P6SM SKC=



000
FTUS46 KLOX 060526
TAFSMX
TAF
KSMX 060526Z 0606/0706 VRB03KT P6SM SCT250
     FM062200 31008KT P6SM SKC
     FM070400 VRB03KT P6SM SKC=



000
FTUS46 KLOX 060526
TAFPMD
TAF
KPMD 060526Z 0606/0706 VRB03KT P6SM SCT250
     FM061800 05012KT P6SM SKC
     FM070300 VRB03KT P6SM SKC=



000
FTUS46 KLOX 060526
TAFSBP
TAF
KSBP 060526Z 0606/0706 VRB03KT P6SM SCT250
     FM062200 32008KT P6SM SKC
     FM070400 VRB03KT P6SM SKC=



000
FTUS46 KLOX 060310 AAA
TAFLAX
TAF AMD
KLAX 060310Z 0603/0706 VRB03KT P6SM SCT250
     FM060700 06004KT P6SM SCT250
     FM062100 27010KT P6SM SKC
     FM070300 VRB03KT P6SM SKC=



000
FTUS46 KLOX 060310 AAA
TAFLAX
TAF AMD
KLAX 060310Z 0603/0706 VRB03KT P6SM SCT250
     FM060700 06004KT P6SM SCT250
     FM062100 27010KT P6SM SKC
     FM070300 VRB03KT P6SM SKC=



000
FTUS46 KLOX 060021 AAA
TAFPRB
TAF AMD
KPRB 060021Z 0600/0624 09012KT P6SM SCT250
     FM060300 VRB06KT P6SM SCT250
     FM061300 00000KT 6SM BR VCFG SCT001 SCT250
     FM061700 VRB03KT P6SM SCT250
     FM062300 09010KT P6SM SKC=



000
FTUS46 KLOX 060021 AAA
TAFPRB
TAF AMD
KPRB 060021Z 0600/0624 09012KT P6SM SCT250
     FM060300 VRB06KT P6SM SCT250
     FM061300 00000KT 6SM BR VCFG SCT001 SCT250
     FM061700 VRB03KT P6SM SCT250
     FM062300 09010KT P6SM SKC=



000
FTUS46 KLOX 052351
TAFSMX
TAF
KSMX 052351Z 0600/0624 31008KT P6SM SCT250
     FM060300 VRB03KT P6SM SCT250
     FM062200 31009KT P6SM SKC=



000
FTUS46 KLOX 052351
TAFSBP
TAF
KSBP 052351Z 0600/0624 32008KT P6SM SCT250
     FM060300 VRB03KT P6SM SCT250
     FM062200 32009KT P6SM SKC=



000
FTUS46 KLOX 052351
TAFSBA
TAF
KSBA 052351Z 0600/0624 27009KT P6SM SCT250
     FM060200 VRB03KT P6SM SCT250
     FM062100 24008KT P6SM SKC=



000
FTUS46 KLOX 052351
TAFLGB
TAF
KLGB 052351Z 0600/0624 04007KT P6SM SCT250
     FM060400 VRB03KT P6SM SCT250
     FM061500 35007KT P6SM SCT250
     FM062200 04007KT P6SM SKC=



000
FTUS46 KLOX 052351
TAFPRB
TAF
KPRB 052351Z 0600/0624 09012KT P6SM SCT250
     FM060300 VRB06KT P6SM SCT250
     FM061300 00000KT 6SM BR VCFG SCT001 SCT250
     FM062300 09010KT P6SM SKC=



000
FTUS46 KLOX 052351
TAFVNY
TAF
KVNY 052351Z 0600/0624 35015G25KT P6SM SCT250
     FM060500 35012KT P6SM SCT250
     FM060800 35009KT P6SM SCT250
     FM061400 36012KT P6SM SCT250
     FM062000 36015G25KT P6SM SKC=



000
FTUS46 KLOX 052351
TAFWJF
TAF
KWJF 052351Z 0600/0624 06012KT P6SM SCT250
     FM060300 VRB03KT P6SM SCT250
     FM061800 04012KT P6SM SKC=



000
FTUS46 KLOX 052351
TAFPMD
TAF
KPMD 052351Z 0600/0624 07012KT P6SM SCT250
     FM060300 VRB03KT P6SM SCT250
     FM061800 05012KT P6SM SKC=



000
FTUS46 KLOX 052351
TAFSMX
TAF
KSMX 052351Z 0600/0624 31008KT P6SM SCT250
     FM060300 VRB03KT P6SM SCT250
     FM062200 31009KT P6SM SKC=



000
FTUS46 KLOX 052351
TAFSBP
TAF
KSBP 052351Z 0600/0624 32008KT P6SM SCT250
     FM060300 VRB03KT P6SM SCT250
     FM062200 32009KT P6SM SKC=



000
FTUS46 KLOX 052351
TAFVNY
TAF
KVNY 052351Z 0600/0624 35015G25KT P6SM SCT250
     FM060500 35012KT P6SM SCT250
     FM060800 35009KT P6SM SCT250
     FM061400 36012KT P6SM SCT250
     FM062000 36015G25KT P6SM SKC=



000
FTUS46 KLOX 052351
TAFLGB
TAF
KLGB 052351Z 0600/0624 04007KT P6SM SCT250
     FM060400 VRB03KT P6SM SCT250
     FM061500 35007KT P6SM SCT250
     FM062200 04007KT P6SM SKC=



000
FTUS46 KLOX 052351
TAFPRB
TAF
KPRB 052351Z 0600/0624 09012KT P6SM SCT250
     FM060300 VRB06KT P6SM SCT250
     FM061300 00000KT 6SM BR VCFG SCT001 SCT250
     FM062300 09010KT P6SM SKC=



000
FTUS46 KLOX 052351
TAFSBA
TAF
KSBA 052351Z 0600/0624 27009KT P6SM SCT250
     FM060200 VRB03KT P6SM SCT250
     FM062100 24008KT P6SM SKC=



000
FTUS46 KLOX 052351
TAFWJF
TAF
KWJF 052351Z 0600/0624 06012KT P6SM SCT250
     FM060300 VRB03KT P6SM SCT250
     FM061800 04012KT P6SM SKC=



000
FTUS46 KLOX 052351
TAFPMD
TAF
KPMD 052351Z 0600/0624 07012KT P6SM SCT250
     FM060300 VRB03KT P6SM SCT250
     FM061800 05012KT P6SM SKC=



000
FTUS46 KLOX 052332
TAFLAX
TAF
KLAX 052332Z 0600/0706 27009KT P6SM SCT250
     FM060300 VRB03KT P6SM SCT250
     FM060700 06004KT P6SM SCT250
     FM062100 27010KT P6SM SKC
     FM070300 VRB03KT P6SM SKC=



000
FTUS46 KLOX 052332
TAFBUR
TAF
KBUR 052332Z 0600/0624 VRB04KT P6SM SCT250
     FM060400 34004KT P6SM SCT250
     FM062200 17006KT P6SM SKC=



000
FTUS46 KLOX 052332
TAFBUR
TAF
KBUR 052332Z 0600/0624 VRB04KT P6SM SCT250
     FM060400 34004KT P6SM SCT250
     FM062200 17006KT P6SM SKC=



000
FTUS46 KLOX 052332
TAFLAX
TAF
KLAX 052332Z 0600/0706 27009KT P6SM SCT250
     FM060300 VRB03KT P6SM SCT250
     FM060700 06004KT P6SM SCT250
     FM062100 27010KT P6SM SKC
     FM070300 VRB03KT P6SM SKC=



000
FTUS46 KLOX 052040 AAA
TAFLAX
TAF AMD
KLAX 052040Z 0521/0624 19006KT P6SM SCT250
     FM052200 27008KT P6SM SCT250
     FM060300 VRB03KT P6SM SCT250
     FM061400 06006KT P6SM SCT250
     FM062100 28007KT P6SM SCT250=



000
FTUS46 KLOX 052040 AAA
TAFLAX
TAF AMD
KLAX 052040Z 0521/0624 19006KT P6SM SCT250
     FM052200 27008KT P6SM SCT250
     FM060300 VRB03KT P6SM SCT250
     FM061400 06006KT P6SM SCT250
     FM062100 28007KT P6SM SCT250=



000
FTUS46 KLOX 051733
TAFPMD
TAF
KPMD 051733Z 0518/0618 01004KT P6SM SCT250
     FM051900 07012KT P6SM SCT250
     FM060300 VRB03KT P6SM SCT250=



000
FTUS46 KLOX 051733
TAFBUR
TAF
KBUR 051733Z 0518/0618 00000KT P6SM SCT250
     FM052300 30007KT P6SM SCT250
     FM060300 VRB03KT P6SM SCT250=



000
FTUS46 KLOX 051733
TAFVNY
TAF
KVNY 051733Z 0518/0618 35015KT P6SM SCT250
     FM060800 36009KT P6SM SCT250=



000
FTUS46 KLOX 051733
TAFSBA
TAF
KSBA 051733Z 0518/0618 VRB04KT P6SM SCT250
     FM052100 25008KT P6SM SCT250
     FM060200 VRB03KT P6SM SCT250=



000
FTUS46 KLOX 051733
TAFPRB
TAF
KPRB 051733Z 0518/0618 00000KT P6SM SCT250
     FM052100 10012KT P6SM SCT250
     FM060400 VRB03KT P6SM SCT250=



000
FTUS46 KLOX 051733
TAFSMX
TAF
KSMX 051733Z 0518/0618 00000KT P6SM SCT250
     FM052100 32008KT P6SM SCT250
     FM060300 02006KT P6SM SCT250
     FM060600 VRB03KT P6SM SCT250=



000
FTUS46 KLOX 051733
TAFLGB
TAF
KLGB 051733Z 0518/0618 34007KT P6SM SCT250
     FM052300 35007KT P6SM SCT250
     FM060400 VRB03KT P6SM SCT250=



000
FTUS46 KLOX 051733
TAFSBP
TAF
KSBP 051733Z 0518/0618 11003KT P6SM SCT250
     FM052200 32008KT P6SM SCT250
     FM060300 VRB03KT P6SM SCT250=



000
FTUS46 KLOX 051733
TAFLAX
TAF
KLAX 051733Z 0518/0624 05004KT P6SM SCT250
     FM051900 VRB03KT P6SM SCT250
     FM052200 27008KT P6SM SCT250
     FM060300 VRB03KT P6SM SCT250
     FM061400 06006KT P6SM SCT250
     FM062100 28007KT P6SM SCT250=



000
FTUS46 KLOX 051733
TAFWJF
TAF
KWJF 051733Z 0518/0618 04004KT P6SM SCT250
     FM051900 07012KT P6SM SCT250
     FM060300 VRB03KT P6SM SCT250=



000
FTUS46 KLOX 051551 AAB
TAFPRB
TAF AMD
KPRB 051551Z 0516/0612 VRB03KT 2SM BR SCT001
     FM051700 VRB03KT P6SM SKC
     FM052100 10012KT P6SM SKC
     FM060400 VRB03KT P6SM SKC=



000
FTUS46 KLOX 051441 AAA
TAFLAX
TAF AMD
KLAX 051441Z 0515/0618 04007KT P6SM SKC
     FM051900 VRB03KT P6SM SKC
     FM052200 27008KT P6SM SKC
     FM060300 VRB03KT P6SM SKC
     FM061400 06006KT P6SM SKC=



000
FTUS46 KLOX 051402 AAA
TAFPRB
TAF AMD
KPRB 051402Z 0514/0612 VRB03KT 6SM BR SKC
     FM051500 VRB03KT P6SM SKC
     FM052100 10012KT P6SM SKC
     FM060400 VRB03KT P6SM SKC=



000
FTUS46 KLOX 051402 AAA
TAFPRB
TAF AMD
KPRB 051402Z 0514/0612 VRB03KT 6SM BR SKC
     FM051500 VRB03KT P6SM SKC
     FM052100 10012KT P6SM SKC
     FM060400 VRB03KT P6SM SKC=



000
FTUS46 KLOX 051129
TAFSMX
TAF
KSMX 051129Z 0512/0612 VRB03KT P6SM SKC
     FM052100 32008KT P6SM SKC
     FM060300 02006KT P6SM SKC
     FM060600 VRB03KT P6SM SKC=



000
FTUS46 KLOX 051129
TAFPMD
TAF
KPMD 051129Z 0512/0612 VRB03KT P6SM SKC
     FM051900 07012KT P6SM SKC
     FM060300 VRB03KT P6SM SKC=



000
FTUS46 KLOX 051129
TAFBUR
TAF
KBUR 051129Z 0512/0612 VRB03KT P6SM SKC
     FM051500 VRB03KT P6SM SKC WS010/05030KT
     FM051800 02008KT P6SM SKC
     FM052300 30007KT P6SM SKC
     FM060300 VRB03KT P6SM SKC=



000
FTUS46 KLOX 051129
TAFLAX
TAF
KLAX 051129Z 0512/0618 VRB03KT P6SM SKC
     FM051400 04007KT P6SM SKC
     FM051900 VRB03KT P6SM SKC
     FM052200 27008KT P6SM SKC
     FM060300 VRB03KT P6SM SKC
     FM061400 06006KT P6SM SKC=



000
FTUS46 KLOX 051129
TAFSBP
TAF
KSBP 051129Z 0512/0612 VRB03KT P6SM SKC
     FM052200 32008KT P6SM SKC
     FM060300 VRB03KT P6SM SKC=



000
FTUS46 KLOX 051129
TAFPRB
TAF
KPRB 051129Z 0512/0612 VRB03KT 4SM BR SKC
     FM051500 VRB03KT P6SM SKC
     FM052100 10012KT P6SM SKC
     FM060400 VRB03KT P6SM SKC=



000
FTUS46 KLOX 051129
TAFWJF
TAF
KWJF 051129Z 0512/0612 VRB03KT P6SM SKC
     FM051900 07012KT P6SM SKC
     FM060300 VRB03KT P6SM SKC=



000
FTUS46 KLOX 051129
TAFVNY
TAF
KVNY 051129Z 0512/0612 36015KT P6SM SKC WS010/03030KT
     FM051600 36020G30KT P6SM SKC
     FM060200 36012KT P6SM SKC=



000
FTUS46 KLOX 051129
TAFSBA
TAF
KSBA 051129Z 0512/0612 VRB03KT P6SM SKC
     FM052100 25008KT P6SM SKC
     FM060200 VRB03KT P6SM SKC=



000
FTUS46 KLOX 051129
TAFSMX
TAF
KSMX 051129Z 0512/0612 VRB03KT P6SM SKC
     FM052100 32008KT P6SM SKC
     FM060300 02006KT P6SM SKC
     FM060600 VRB03KT P6SM SKC=



000
FTUS46 KLOX 051129
TAFLGB
TAF
KLGB 051129Z 0512/0612 VRB03KT P6SM SKC
     FM051700 03008KT P6SM SKC
     FM052300 33008KT P6SM SKC
     FM060400 VRB03KT P6SM SKC=



000
FTUS46 KLOX 051129
TAFPMD
TAF
KPMD 051129Z 0512/0612 VRB03KT P6SM SKC
     FM051900 07012KT P6SM SKC
     FM060300 VRB03KT P6SM SKC=



000
FTUS46 KLOX 051129
TAFBUR
TAF
KBUR 051129Z 0512/0612 VRB03KT P6SM SKC
     FM051500 VRB03KT P6SM SKC WS010/05030KT
     FM051800 02008KT P6SM SKC
     FM052300 30007KT P6SM SKC
     FM060300 VRB03KT P6SM SKC=



000
FTUS46 KLOX 051129
TAFLAX
TAF
KLAX 051129Z 0512/0618 VRB03KT P6SM SKC
     FM051400 04007KT P6SM SKC
     FM051900 VRB03KT P6SM SKC
     FM052200 27008KT P6SM SKC
     FM060300 VRB03KT P6SM SKC
     FM061400 06006KT P6SM SKC=



000
FTUS46 KLOX 051129
TAFLGB
TAF
KLGB 051129Z 0512/0612 VRB03KT P6SM SKC
     FM051700 03008KT P6SM SKC
     FM052300 33008KT P6SM SKC
     FM060400 VRB03KT P6SM SKC=



000
FTUS46 KLOX 051129
TAFSBA
TAF
KSBA 051129Z 0512/0612 VRB03KT P6SM SKC
     FM052100 25008KT P6SM SKC
     FM060200 VRB03KT P6SM SKC=



000
FTUS46 KLOX 051129
TAFWJF
TAF
KWJF 051129Z 0512/0612 VRB03KT P6SM SKC
     FM051900 07012KT P6SM SKC
     FM060300 VRB03KT P6SM SKC=



000
FTUS46 KLOX 051129
TAFPRB
TAF
KPRB 051129Z 0512/0612 VRB03KT 4SM BR SKC
     FM051500 VRB03KT P6SM SKC
     FM052100 10012KT P6SM SKC
     FM060400 VRB03KT P6SM SKC=



000
FTUS46 KLOX 051129
TAFSBP
TAF
KSBP 051129Z 0512/0612 VRB03KT P6SM SKC
     FM052200 32008KT P6SM SKC
     FM060300 VRB03KT P6SM SKC=



000
FTUS46 KLOX 051129
TAFVNY
TAF
KVNY 051129Z 0512/0612 36015KT P6SM SKC WS010/03030KT
     FM051600 36020G30KT P6SM SKC
     FM060200 36012KT P6SM SKC=



000
FTUS46 KLOX 050846 AAA
TAFLAX
TAF AMD
KLAX 050846Z 0509/0612 VRB03KT P6SM SCT250
     FM051300 04007KT P6SM SCT250
     FM052100 27008KT P6SM SKC
     FM060300 VRB03KT P6SM SKC=



000
FTUS46 KLOX 050846 AAA
TAFLAX
TAF AMD
KLAX 050846Z 0509/0612 VRB03KT P6SM SCT250
     FM051300 04007KT P6SM SCT250
     FM052100 27008KT P6SM SKC
     FM060300 VRB03KT P6SM SKC=



000
FTUS46 KLOX 050525
TAFLGB
TAF
KLGB 050525Z 0506/0606 VRB03KT P6SM SCT250
     FM051700 03010KT P6SM SCT250
     FM052300 33007KT P6SM SKC
     FM060400 VRB03KT P6SM SKC=



000
FTUS46 KLOX 050525
TAFVNY
TAF
KVNY 050525Z 0506/0606 35015G22KT P6SM SCT250
     FM051000 35012KT P6SM SCT250 WS010/03030KT
     FM051600 36018G28KT P6SM SCT250
     FM060200 36012KT P6SM SKC=



000
FTUS46 KLOX 050525
TAFSBA
TAF
KSBA 050525Z 0506/0606 VRB03KT P6SM SCT250
     FM052100 25008KT P6SM SKC
     FM060200 VRB03KT P6SM SKC=



000
FTUS46 KLOX 050525
TAFSBP
TAF
KSBP 050525Z 0506/0606 VRB03KT P6SM SCT250
     FM051400 02006KT P6SM SCT250
     FM052200 33008KT P6SM SKC
     FM060300 VRB03KT P6SM SKC=



000
FTUS46 KLOX 050525
TAFSMX
TAF
KSMX 050525Z 0506/0606 02007KT P6SM SCT250
     FM052200 33009KT P6SM SKC
     FM060400 VRB03KT P6SM SKC=



000
FTUS46 KLOX 050525
TAFPRB
TAF
KPRB 050525Z 0506/0606 VRB03KT P6SM SCT250
     FM051200 00000KT 6SM BR SCT250
     FM051600 VRB03KT P6SM SCT250
     FM052100 09008KT P6SM SKC
     FM060500 VRB03KT P6SM SKC=



000
FTUS46 KLOX 050525
TAFWJF
TAF
KWJF 050525Z 0506/0606 VRB03KT P6SM SCT250
     FM051800 06012KT P6SM SCT250
     FM060100 33006KT P6SM SKC=



000
FTUS46 KLOX 050525
TAFPMD
TAF
KPMD 050525Z 0506/0606 VRB03KT P6SM SCT250
     FM051800 06012KT P6SM SCT250
     FM060100 10006KT P6SM SKC=



000
FTUS46 KLOX 050525
TAFBUR
TAF
KBUR 050525Z 0506/0606 VRB03KT P6SM SCT250
     FM051300 VRB03KT P6SM SCT250 WS010/03030KT
     FM051700 04008KT P6SM SCT250
     FM052300 30007KT P6SM SKC
     FM060400 VRB03KT P6SM SKC=



000
FTUS46 KLOX 050525
TAFLAX
TAF
KLAX 050525Z 0506/0612 36006KT P6SM SCT250
     FM051300 04007KT P6SM SCT250
     FM052100 27008KT P6SM SKC
     FM060300 VRB03KT P6SM SKC=



000
FTUS46 KLOX 050400 AAA
TAFVNY
TAF AMD
KVNY 050400Z 0504/0524 35014G22KT P6SM SCT250
     FM050700 35012KT P6SM SCT250
     FM051500 35015G25KT P6SM SCT250
     FM051900 36015G25KT P6SM SCT250=



000
FTUS46 KLOX 050400 AAA
TAFVNY
TAF AMD
KVNY 050400Z 0504/0524 35014G22KT P6SM SCT250
     FM050700 35012KT P6SM SCT250
     FM051500 35015G25KT P6SM SCT250
     FM051900 36015G25KT P6SM SCT250=



000
FTUS46 KLOX 050300 AAA
TAFLAX
TAF AMD
KLAX 050300Z 0503/0606 VRB03KT P6SM SCT250
     FM050800 05006KT P6SM SCT250
     FM052100 27009KT P6SM SCT250
     FM060300 VRB03KT P6SM SCT250=



000
FTUS46 KLOX 050300 AAA
TAFLAX
TAF AMD
KLAX 050300Z 0503/0606 VRB03KT P6SM SCT250
     FM050800 05006KT P6SM SCT250
     FM052100 27009KT P6SM SCT250
     FM060300 VRB03KT P6SM SCT250=



000
FTUS46 KLOX 042359 CCA
TAFVNY
TAF COR
KVNY 042359Z 0500/0524 35014G22KT P6SM SCT250
     FM050200 35012KT P6SM SCT250
     FM051500 35015G25KT P6SM SCT250
     FM051900 36015G25KT P6SM SCT250=



000
FTUS46 KLOX 042347
TAFWJF
TAF
KWJF 042347Z 0500/0524 04010KT P6SM SCT250
     FM050300 29008KT P6SM SCT250
     FM050700 VRB03KT P6SM SCT250
     FM051800 05012KT P6SM SCT250=



000
FTUS46 KLOX 042347
TAFSBA
TAF
KSBA 042347Z 0500/0524 27009KT P6SM SCT250
     FM050200 VRB03KT P6SM SCT250
     FM052100 24008KT P6SM FEW150 SCT250=



000
FTUS46 KLOX 042347
TAFLAX
TAF
KLAX 042347Z 0500/0606 27010KT P6SM SCT250
     FM050300 VRB03KT P6SM SCT250
     FM051000 05006KT P6SM SCT250
     FM052100 27009KT P6SM SCT250
     FM060300 VRB03KT P6SM SCT250=



000
FTUS46 KLOX 042347
TAFPMD
TAF
KPMD 042347Z 0500/0524 03010KT P6SM SCT250
     FM050300 VRB03KT P6SM SCT250
     FM051800 06012KT P6SM SCT250=



000
FTUS46 KLOX 042347
TAFBUR
TAF
KBUR 042347Z 0500/0524 17006KT P6SM SCT250
     FM050200 34004KT P6SM SCT250
     FM051000 VRB03KT P6SM SCT250
     FM051700 06005KT P6SM SCT250
     FM052300 VRB03KT P6SM SCT250=



000
FTUS46 KLOX 042347
TAFSMX
TAF
KSMX 042347Z 0500/0524 35008KT P6SM SCT250
     FM051500 05006KT P6SM SCT250
     FM052200 32009KT P6SM SCT150 SCT250=



000
FTUS46 KLOX 042347
TAFPRB
TAF
KPRB 042347Z 0500/0524 10010KT P6SM SCT250
     FM050400 VRB03KT P6SM SCT250
     FM051100 00000KT 6SM BR VCFG SCT001 SCT250
     FM051600 VRB03KT P6SM SCT250
     FM052100 09008KT P6SM SCT150 SCT250=



000
FTUS46 KLOX 042347
TAFSBP
TAF
KSBP 042347Z 0500/0524 33009KT P6SM SCT250
     FM050300 VRB03KT P6SM SCT250
     FM051600 36005KT P6SM SCT250
     FM052200 33008KT P6SM SCT150 SCT250=



000
FTUS46 KLOX 042347
TAFLGB
TAF
KLGB 042347Z 0500/0524 31009KT P6SM SCT250
     FM050500 VRB03KT P6SM SCT250
     FM051600 01005KT P6SM SCT250
     FM052200 34007KT P6SM SCT250=



000
FTUS46 KLOX 042347
TAFVNY
TAF
KVNY 042347Z 0500/0524 35012KT P6SM SCT250
     FM051500 35015G25KT P6SM SCT250
     FM051900 36015G25KT P6SM SCT250=



000
FTUS46 KLOX 042347
TAFLGB
TAF
KLGB 042347Z 0500/0524 31009KT P6SM SCT250
     FM050500 VRB03KT P6SM SCT250
     FM051600 01005KT P6SM SCT250
     FM052200 34007KT P6SM SCT250=



000
FTUS46 KLOX 042347
TAFSBP
TAF
KSBP 042347Z 0500/0524 33009KT P6SM SCT250
     FM050300 VRB03KT P6SM SCT250
     FM051600 36005KT P6SM SCT250
     FM052200 33008KT P6SM SCT150 SCT250=



000
FTUS46 KLOX 042347
TAFSBA
TAF
KSBA 042347Z 0500/0524 27009KT P6SM SCT250
     FM050200 VRB03KT P6SM SCT250
     FM052100 24008KT P6SM FEW150 SCT250=



000
FTUS46 KLOX 042347
TAFLAX
TAF
KLAX 042347Z 0500/0606 27010KT P6SM SCT250
     FM050300 VRB03KT P6SM SCT250
     FM051000 05006KT P6SM SCT250
     FM052100 27009KT P6SM SCT250
     FM060300 VRB03KT P6SM SCT250=



000
FTUS46 KLOX 042347
TAFVNY
TAF
KVNY 042347Z 0500/0524 35012KT P6SM SCT250
     FM051500 35015G25KT P6SM SCT250
     FM051900 36015G25KT P6SM SCT250=



000
FTUS46 KLOX 042347
TAFWJF
TAF
KWJF 042347Z 0500/0524 04010KT P6SM SCT250
     FM050300 29008KT P6SM SCT250
     FM050700 VRB03KT P6SM SCT250
     FM051800 05012KT P6SM SCT250=



000
FTUS46 KLOX 042347
TAFPMD
TAF
KPMD 042347Z 0500/0524 03010KT P6SM SCT250
     FM050300 VRB03KT P6SM SCT250
     FM051800 06012KT P6SM SCT250=



000
FTUS46 KLOX 042347
TAFBUR
TAF
KBUR 042347Z 0500/0524 17006KT P6SM SCT250
     FM050200 34004KT P6SM SCT250
     FM051000 VRB03KT P6SM SCT250
     FM051700 06005KT P6SM SCT250
     FM052300 VRB03KT P6SM SCT250=



000
FTUS46 KLOX 042347
TAFSMX
TAF
KSMX 042347Z 0500/0524 35008KT P6SM SCT250
     FM051500 05006KT P6SM SCT250
     FM052200 32009KT P6SM SCT150 SCT250=



000
FTUS46 KLOX 042347
TAFPRB
TAF
KPRB 042347Z 0500/0524 10010KT P6SM SCT250
     FM050400 VRB03KT P6SM SCT250
     FM051100 00000KT 6SM BR VCFG SCT001 SCT250
     FM051600 VRB03KT P6SM SCT250
     FM052100 09008KT P6SM SCT150 SCT250=



000
FTUS46 KLOX 042053 AAA
TAFLAX
TAF AMD
KLAX 042053Z 0421/0524 00000KT P6SM FEW090 SCT160 SCT200
     FM042200 26008KT P6SM SCT250
     FM050500 VRB03KT P6SM SCT250
     FM051300 05006KT P6SM SKC
     FM052100 26008KT P6SM SKC=



000
FTUS46 KLOX 042053 AAA
TAFLAX
TAF AMD
KLAX 042053Z 0421/0524 00000KT P6SM FEW090 SCT160 SCT200
     FM042200 26008KT P6SM SCT250
     FM050500 VRB03KT P6SM SCT250
     FM051300 05006KT P6SM SKC
     FM052100 26008KT P6SM SKC=



000
FTUS46 KLOX 041739
TAFSMX
TAF
KSMX 041739Z 0418/0518 00000KT P6SM SKC
     FM042200 32010KT P6SM SCT250
     FM050300 03006KT P6SM SCT250=



000
FTUS46 KLOX 041739
TAFWJF
TAF
KWJF 041739Z 0418/0518 00000KT P6SM SKC
     FM042000 04010KT P6SM SCT250
     FM050200 29008KT P6SM SKC
     FM050800 VRB03KT P6SM SKC=



000
FTUS46 KLOX 041739
TAFSBP
TAF
KSBP 041739Z 0418/0518 21004KT P6SM SKC
     FM042200 32010KT P6SM SCT250
     FM050300 VRB03KT P6SM SCT250=



000
FTUS46 KLOX 041739
TAFPRB
TAF
KPRB 041739Z 0418/0518 00000KT P6SM SKC
     FM042300 10008KT P6SM SCT250
     FM050400 VRB03KT P6SM SCT250=



000
FTUS46 KLOX 041739
TAFLGB
TAF
KLGB 041739Z 0418/0518 36003KT P6SM SKC
     FM050000 32007KT P6SM SCT250
     FM050500 VRB03KT P6SM SKC=



000
FTUS46 KLOX 041739
TAFPMD
TAF
KPMD 041739Z 0418/0518 00000KT P6SM SKC
     FM042000 04010KT P6SM SCT250
     FM050200 27008KT P6SM SKC
     FM050800 VRB03KT P6SM SKC=



000
FTUS46 KLOX 041739
TAFLAX
TAF
KLAX 041739Z 0418/0524 03005KT P6SM FEW140 SCT250
     FM041900 VRB03KT P6SM SCT250
     FM042100 26008KT P6SM SCT250
     FM050500 VRB03KT P6SM SCT250
     FM051300 05006KT P6SM SKC
     FM052100 26008KT P6SM SKC=



000
FTUS46 KLOX 041739
TAFSBA
TAF
KSBA 041739Z 0418/0518 00000KT P6SM SKC
     FM042000 24007KT P6SM SCT250
     FM050200 VRB03KT P6SM SCT250=



000
FTUS46 KLOX 041739
TAFBUR
TAF
KBUR 041739Z 0418/0518 00000KT P6SM SKC
     FM042300 17006KT P6SM SCT250
     FM050200 VRB03KT P6SM SKC=



000
FTUS46 KLOX 041739
TAFVNY
TAF
KVNY 041739Z 0418/0518 36014G20KT P6SM SKC
     FM050200 36010KT P6SM SKC=



000
FTUS46 KLOX 041454 AAA
TAFLAX
TAF AMD
KLAX 041454Z 0415/0518 04006KT P6SM SCT250
     FM041900 VRB03KT P6SM SCT250
     FM042100 26008KT P6SM SCT250
     FM050500 VRB03KT P6SM SCT250
     FM051000 05007KT P6SM SKC=



000
FTUS46 KLOX 041125
TAFVNY
TAF
KVNY 041125Z 0412/0512 35006KT P6SM SCT250
     FM041700 36015G22KT P6SM SCT250
     FM050200 36010KT P6SM SKC=



000
FTUS46 KLOX 041125
TAFSMX
TAF
KSMX 041125Z 0412/0512 VRB03KT P6SM SCT250
     FM042000 32010KT P6SM SCT250
     FM050300 03006KT P6SM SCT250=



000
FTUS46 KLOX 041125
TAFPRB
TAF
KPRB 041125Z 0412/0512 VRB03KT P6SM SCT250
     FM042300 10008KT P6SM SCT250
     FM050400 VRB03KT P6SM SCT250=



000
FTUS46 KLOX 041125
TAFPMD
TAF
KPMD 041125Z 0412/0512 VRB03KT P6SM SCT250
     FM042000 04010KT P6SM SCT250
     FM050200 27008KT P6SM SKC
     FM050800 VRB03KT P6SM SKC=



000
FTUS46 KLOX 041125
TAFSBP
TAF
KSBP 041125Z 0412/0512 VRB03KT P6SM SCT250
     FM042000 32010KT P6SM SCT250
     FM050300 VRB03KT P6SM SCT250=



000
FTUS46 KLOX 041125
TAFLGB
TAF
KLGB 041125Z 0412/0512 VRB03KT P6SM SCT250
     FM050000 32007KT P6SM SCT250
     FM050500 VRB03KT P6SM SKC=



000
FTUS46 KLOX 041125
TAFLAX
TAF
KLAX 041125Z 0412/0518 04006KT P6SM SCT250
     FM041900 VRB03KT P6SM SCT250
     FM042100 26008KT P6SM SCT250
     FM050500 VRB03KT P6SM SCT250
     FM051000 05007KT P6SM SKC=



000
FTUS46 KLOX 041125
TAFBUR
TAF
KBUR 041125Z 0412/0512 VRB03KT P6SM SCT250
     FM042300 17006KT P6SM SCT250
     FM050200 VRB03KT P6SM SKC=



000
FTUS46 KLOX 041125
TAFSBA
TAF
KSBA 041125Z 0412/0512 VRB03KT P6SM SCT250
     FM042000 24007KT P6SM SCT250
     FM050200 VRB03KT P6SM SCT250=



000
FTUS46 KLOX 041125
TAFWJF
TAF
KWJF 041125Z 0412/0512 VRB03KT P6SM SCT250
     FM042000 04010KT P6SM SCT250
     FM050200 29008KT P6SM SKC
     FM050800 VRB03KT P6SM SKC=



000
FTUS46 KLOX 040850 AAA
TAFLAX
TAF AMD
KLAX 040850Z 0409/0512 VRB03KT P6SM SCT250
     FM041200 05006KT P6SM SCT250
     FM042000 27008KT P6SM SCT250
     FM050400 35006KT P6SM SKC=



000
FTUS46 KLOX 040850 AAA
TAFLAX
TAF AMD
KLAX 040850Z 0409/0512 VRB03KT P6SM SCT250
     FM041200 05006KT P6SM SCT250
     FM042000 27008KT P6SM SCT250
     FM050400 35006KT P6SM SKC=



000
FTUS46 KLOX 040529
TAFVNY
TAF
KVNY 040529Z 0406/0506 35007KT P6SM SCT250
     FM041800 36015G22KT P6SM SCT250
     FM050400 36010KT P6SM SKC=



000
FTUS46 KLOX 040529
TAFWJF
TAF
KWJF 040529Z 0406/0506 VRB03KT P6SM SCT250
     FM041800 04010KT P6SM SCT250
     FM050100 26008KT P6SM SKC=



000
FTUS46 KLOX 040529
TAFBUR
TAF
KBUR 040529Z 0406/0506 VRB03KT P6SM SCT250
     FM042000 02006KT P6SM SCT250
     FM050300 VRB03KT P6SM SKC=



000
FTUS46 KLOX 040529
TAFLGB
TAF
KLGB 040529Z 0406/0506 VRB03KT P6SM SCT250
     FM041700 04007KT P6SM SCT250
     FM042200 32007KT P6SM SCT250
     FM050400 VRB03KT P6SM SKC=



000
FTUS46 KLOX 040529
TAFPMD
TAF
KPMD 040529Z 0406/0506 VRB03KT P6SM SCT250
     FM041800 04010KT P6SM SCT250
     FM050100 26008KT P6SM SKC=



000
FTUS46 KLOX 040529
TAFSBA
TAF
KSBA 040529Z 0406/0506 VRB03KT P6SM SCT250
     FM041900 25007KT P6SM SCT250
     FM050200 VRB03KT P6SM SCT250=



000
FTUS46 KLOX 040529
TAFSMX
TAF
KSMX 040529Z 0406/0506 VRB03KT P6SM SCT250
     FM041900 32010KT P6SM SCT250
     FM050300 03006KT P6SM SCT250=



000
FTUS46 KLOX 040529
TAFSBP
TAF
KSBP 040529Z 0406/0506 VRB03KT P6SM SCT250
     FM041900 33010KT P6SM SCT250
     FM050300 VRB03KT P6SM SCT250=



000
FTUS46 KLOX 040529
TAFPRB
TAF
KPRB 040529Z 0406/0506 VRB03KT P6SM SCT250
     FM042200 09008KT P6SM SCT250
     FM050500 VRB03KT P6SM SCT250=



000
FTUS46 KLOX 040529
TAFLAX
TAF
KLAX 040529Z 0406/0512 VRB03KT P6SM SCT250
     FM041200 05006KT P6SM SCT250
     FM042000 27008KT P6SM SCT250
     FM050400 35006KT P6SM SKC=



000
FTUS46 KLOX 040330 AAA
TAFLAX
TAF AMD
KLAX 040330Z 0404/0506 26011KT P6SM FEW250
     FM040500 VRB03KT P6SM SCT250
     FM041200 05006KT P6SM SCT250
     FM042000 27008KT P6SM SCT250
     FM050400 01006KT P6SM SCT250=



000
FTUS46 KLOX 032339
TAFLAX
TAF
KLAX 032339Z 0400/0506 25012KT P6SM SKC
     FM040400 VRB03KT P6SM SCT250
     FM041200 05006KT P6SM SCT250
     FM042000 27008KT P6SM SCT250
     FM050400 01006KT P6SM SCT250=



000
FTUS46 KLOX 032339
TAFVNY
TAF
KVNY 032339Z 0400/0424 36007KT P6SM SKC
     FM040300 33004KT P6SM SCT250
     FM041400 35007KT P6SM SCT250
     FM041800 36011KT P6SM SCT250
     FM042100 36015G22KT P6SM SCT250=



000
FTUS46 KLOX 032339
TAFLGB
TAF
KLGB 032339Z 0400/0424 19008KT P6SM SKC
     FM040100 30007KT P6SM SCT250
     FM040500 VRB03KT P6SM SCT250
     FM041800 35004KT P6SM SCT250
     FM042100 23005KT P6SM SCT250=



000
FTUS46 KLOX 032339
TAFVNY
TAF
KVNY 032339Z 0400/0424 36007KT P6SM SKC
     FM040300 33004KT P6SM SCT250
     FM041400 35007KT P6SM SCT250
     FM041800 36011KT P6SM SCT250
     FM042100 36015G22KT P6SM SCT250=



000
FTUS46 KLOX 032339
TAFLAX
TAF
KLAX 032339Z 0400/0506 25012KT P6SM SKC
     FM040400 VRB03KT P6SM SCT250
     FM041200 05006KT P6SM SCT250
     FM042000 27008KT P6SM SCT250
     FM050400 01006KT P6SM SCT250=



000
FTUS46 KLOX 032339
TAFSBP
TAF
KSBP 032339Z 0400/0424 28006KT P6SM SCT250
     FM040300 VRB03KT P6SM BKN250
     FM041700 35005KT P6SM SCT250
     FM042100 35010KT P6SM SCT250=



000
FTUS46 KLOX 032339
TAFLGB
TAF
KLGB 032339Z 0400/0424 19008KT P6SM SKC
     FM040100 30007KT P6SM SCT250
     FM040500 VRB03KT P6SM SCT250
     FM041800 35004KT P6SM SCT250
     FM042100 23005KT P6SM SCT250=



000
FTUS46 KLOX 032339
TAFBUR
TAF
KBUR 032339Z 0400/0424 18005KT P6SM SKC
     FM040200 VRB03KT P6SM SCT250
     FM042100 02006KT P6SM SCT250=



000
FTUS46 KLOX 032339
TAFBUR
TAF
KBUR 032339Z 0400/0424 18005KT P6SM SKC
     FM040200 VRB03KT P6SM SCT250
     FM042100 02006KT P6SM SCT250=



000
FTUS46 KLOX 032339
TAFSBP
TAF
KSBP 032339Z 0400/0424 28006KT P6SM SCT250
     FM040300 VRB03KT P6SM BKN250
     FM041700 35005KT P6SM SCT250
     FM042100 35010KT P6SM SCT250=



000
FTUS46 KLOX 032339
TAFSBA
TAF
KSBA 032339Z 0400/0424 25008KT P6SM SCT250
     FM040300 VRB03KT P6SM SCT250
     FM041800 15004KT P6SM SCT250
     FM042100 22007KT P6SM SCT250=



000
FTUS46 KLOX 032339
TAFSBA
TAF
KSBA 032339Z 0400/0424 25008KT P6SM SCT250
     FM040300 VRB03KT P6SM SCT250
     FM041800 15004KT P6SM SCT250
     FM042100 22007KT P6SM SCT250=



000
FTUS46 KLOX 032339
TAFPRB
TAF
KPRB 032339Z 0400/0424 06007KT P6SM SCT250
     FM040300 VRB03KT P6SM BKN250
     FM042100 07007KT P6SM SCT250=



000
FTUS46 KLOX 032339
TAFPMD
TAF
KPMD 032339Z 0400/0424 04009KT P6SM SKC
     FM040200 21005KT P6SM SCT250
     FM040600 VRB03KT P6SM SCT250
     FM041800 04006KT P6SM SCT250
     FM042100 06011KT P6SM SCT250=



000
FTUS46 KLOX 032339
TAFPRB
TAF
KPRB 032339Z 0400/0424 06007KT P6SM SCT250
     FM040300 VRB03KT P6SM BKN250
     FM042100 07007KT P6SM SCT250=



000
FTUS46 KLOX 032339
TAFPMD
TAF
KPMD 032339Z 0400/0424 04009KT P6SM SKC
     FM040200 21005KT P6SM SCT250
     FM040600 VRB03KT P6SM SCT250
     FM041800 04006KT P6SM SCT250
     FM042100 06011KT P6SM SCT250=



000
FTUS46 KLOX 032339
TAFWJF
TAF
KWJF 032339Z 0400/0424 05008KT P6SM SKC
     FM040200 27007KT P6SM SCT250
     FM040800 VRB03KT P6SM SCT250
     FM041800 05004KT P6SM SCT250
     FM042100 04011KT P6SM SCT250=



000
FTUS46 KLOX 032339
TAFWJF
TAF
KWJF 032339Z 0400/0424 05008KT P6SM SKC
     FM040200 27007KT P6SM SCT250
     FM040800 VRB03KT P6SM SCT250
     FM041800 05004KT P6SM SCT250
     FM042100 04011KT P6SM SCT250=



000
FTUS46 KLOX 032339
TAFSMX
TAF
KSMX 032339Z 0400/0424 32009KT P6SM SCT250
     FM040300 VRB03KT P6SM BKN250
     FM041700 01008KT P6SM SCT250
     FM042100 33011KT P6SM SCT250=



000
FTUS46 KLOX 032339
TAFSMX
TAF
KSMX 032339Z 0400/0424 32009KT P6SM SCT250
     FM040300 VRB03KT P6SM BKN250
     FM041700 01008KT P6SM SCT250
     FM042100 33011KT P6SM SCT250=



000
FTUS46 KLOX 032059 AAA
TAFLAX
TAF AMD
KLAX 032059Z 0321/0424 VRB03KT P6SM FEW100 SCT160
     FM032200 27008KT P6SM SCT200
     FM040400 VRB03KT P6SM SCT200
     FM041200 05005KT P6SM SCT200
     FM042000 27008KT P6SM SCT200=



000
FTUS46 KLOX 031730
TAFLAX
TAF
KLAX 031730Z 0318/0424 VRB03KT P6SM FEW180
     FM032000 26010KT P6SM SCT200
     FM040400 VRB03KT P6SM SCT200
     FM041200 05005KT P6SM SCT200
     FM042000 27008KT P6SM SCT200=



000
FTUS46 KLOX 031730
TAFSMX
TAF
KSMX 031730Z 0318/0418 16003KT P6SM SCT200
     FM032200 30008KT P6SM SCT200
     FM040300 VRB03KT P6SM SCT200=



000
FTUS46 KLOX 031730
TAFSBP
TAF
KSBP 031730Z 0318/0418 00000KT P6SM SCT200
     FM032200 30008KT P6SM SCT200
     FM040300 VRB03KT P6SM SCT200=



000
FTUS46 KLOX 031730
TAFPRB
TAF
KPRB 031730Z 0318/0418 24004KT P6SM SKC
     FM032300 10008KT P6SM BKN200
     FM040400 VRB03KT P6SM SCT200=



000
FTUS46 KLOX 031730
TAFLGB
TAF
KLGB 031730Z 0318/0418 05006KT P6SM SKC
     FM032100 19007KT P6SM SCT200
     FM032300 28008KT P6SM SCT200
     FM040400 VRB03KT P6SM SCT200=



000
FTUS46 KLOX 031730
TAFBUR
TAF
KBUR 031730Z 0318/0418 00000KT P6SM SKC
     FM032200 17007KT P6SM SCT200
     FM040200 VRB03KT P6SM SCT200=



000
FTUS46 KLOX 031730
TAFPMD
TAF
KPMD 031730Z 0318/0418 00000KT P6SM SKC
     FM031900 05006KT P6SM SKC
     FM040100 26006KT P6SM SCT200=



000
FTUS46 KLOX 031730
TAFWJF
TAF
KWJF 031730Z 0318/0418 06003KT P6SM SKC
     FM031900 06006KT P6SM SKC
     FM040100 26006KT P6SM SCT200=



000
FTUS46 KLOX 031730
TAFVNY
TAF
KVNY 031730Z 0318/0418 35006KT P6SM SKC
     FM040300 VRB03KT P6SM SCT200=



000
FTUS46 KLOX 031730
TAFSBA
TAF
KSBA 031730Z 0318/0418 00000KT P6SM SCT200
     FM032200 25008KT P6SM SCT200
     FM040300 VRB03KT P6SM SCT200=



000
FTUS46 KLOX 031617 AAA
TAFVNY
TAF AMD
KVNY 031617Z 0316/0412 00000KT P6SM SKC
     FM031800 35008KT P6SM SCT200
     FM040300 VRB03KT P6SM SCT200=



    US Dept of Commerce
    National Oceanic and Atmospheric Administration
    National Weather Service
    1325 East West Highway
    Silver Spring, MD 20910
    Page Author: NWS Internet Services Team
Disclaimer
Information Quality
Credits
Glossary
Privacy Policy
Freedom of Information Act (FOIA)
About Us
Career Opportunities